createdAt,value
2024-01-09T00:00:41.468Z,103745.00
2024-01-09T00:03:09.190Z,103751.75
2024-01-09T00:05:38.444Z,103755.16
2024-01-09T00:08:06.641Z,103751.00
2024-01-09T00:10:34.216Z,103752.69
2024-01-09T00:13:01.783Z,103758.78
2024-01-09T00:15:29.483Z,103754.44
2024-01-09T00:17:57.240Z,103755.31
2024-01-09T00:20:24.901Z,103749.34
2024-01-09T00:22:54.184Z,103754.44
2024-01-09T00:25:21.774Z,103744.25
2024-01-09T00:27:49.356Z,103747.59
2024-01-09T00:30:17.131Z,103746.78
2024-01-09T00:32:48.504Z,103749.41
2024-01-09T00:35:16.512Z,103745.94
2024-01-09T00:37:44.161Z,103741.03
2024-01-09T00:40:13.221Z,103743.50
2024-01-09T00:42:40.858Z,103741.91
2024-01-09T00:45:08.979Z,103739.34
2024-01-09T00:47:36.767Z,103731.66
2024-01-09T00:50:04.737Z,103739.34
2024-01-09T00:52:32.392Z,103739.25
2024-01-09T00:55:00.003Z,103739.28
2024-01-09T00:57:29.007Z,103740.19
2024-01-09T00:59:56.712Z,103747.91
2024-01-09T01:02:24.385Z,103741.91
2024-01-09T01:04:52.076Z,103754.72
2024-01-09T01:07:19.745Z,103739.41
2024-01-09T01:09:47.368Z,103749.66
2024-01-09T01:12:14.960Z,103749.56
2024-01-09T01:14:43.894Z,103743.66
2024-01-09T01:17:11.468Z,103748.00
2024-01-09T01:19:39.184Z,103748.81
2024-01-09T01:22:06.776Z,103739.47
2024-01-09T01:24:34.423Z,103746.28
2024-01-09T01:27:02.031Z,103745.41
2024-01-09T01:29:29.633Z,103740.22
2024-01-09T01:31:58.696Z,103745.31
2024-01-09T01:34:26.320Z,103742.88
2024-01-09T01:36:53.909Z,103741.22
2024-01-09T01:39:22.757Z,103742.91
2024-01-09T01:41:50.414Z,103737.75
2024-01-09T01:44:19.233Z,103736.09
2024-01-09T01:46:49.080Z,103737.75
2024-01-09T01:49:19.223Z,103736.09
2024-01-09T01:51:47.676Z,103728.44
2024-01-09T01:54:15.901Z,103731.84
2024-01-09T01:56:43.817Z,103731.09
2024-01-09T01:59:12.107Z,103726.84
2024-01-09T02:01:40.584Z,103714.91
2024-01-09T02:04:09.453Z,103720.03
2024-01-09T02:06:38.546Z,103722.59
2024-01-09T02:09:06.348Z,103725.09
2024-01-09T02:11:34.286Z,103726.94
2024-01-09T02:14:01.911Z,103718.38
2024-01-09T02:16:29.566Z,103715.78
2024-01-09T02:18:57.216Z,103703.84
2024-01-09T02:21:24.845Z,103712.38
2024-01-09T02:23:53.839Z,103705.59
2024-01-09T02:26:39.791Z,103712.41
2024-01-09T02:29:11.200Z,103721.84
2024-01-09T02:31:40.199Z,103712.47
2024-01-09T02:34:11.200Z,103703.97
2024-01-09T02:36:39.051Z,103704.00
2024-01-09T02:39:06.655Z,103695.47
2024-01-09T02:41:36.347Z,103687.81
2024-01-09T02:44:04.000Z,103691.22
2024-01-09T02:46:31.783Z,103690.38
2024-01-09T02:49:00.935Z,103687.84
2024-01-09T02:51:28.555Z,103683.59
2024-01-09T02:53:56.209Z,103686.97
2024-01-09T02:56:23.911Z,103685.38
2024-01-09T02:58:51.566Z,103680.22
2024-01-09T03:01:19.242Z,103668.28
2024-01-09T03:03:46.909Z,103676.88
2024-01-09T03:06:15.976Z,103673.47
2024-01-09T03:08:43.602Z,103674.25
2024-01-09T03:11:11.272Z,103677.66
2024-01-09T03:13:40.082Z,103679.38
2024-01-09T03:16:11.441Z,103674.34
2024-01-09T03:18:39.201Z,103682.00
2024-01-09T03:21:06.914Z,103678.69
2024-01-09T03:23:36.159Z,103677.75
2024-01-09T03:26:04.372Z,103676.91
2024-01-09T03:28:31.951Z,103685.50
2024-01-09T03:30:59.584Z,103680.41
2024-01-09T03:33:27.256Z,103675.28
2024-01-09T03:35:54.908Z,103678.63
2024-01-09T03:38:22.572Z,103674.47
2024-01-09T03:40:51.677Z,103669.34
2024-01-09T03:43:19.274Z,103672.78
2024-01-09T03:45:46.907Z,103681.28
2024-01-09T03:48:14.575Z,103683.94
2024-01-09T03:50:42.181Z,103682.19
2024-01-09T03:53:09.804Z,103672.78
2024-01-09T03:55:37.422Z,103675.38
2024-01-09T03:58:06.499Z,103683.06
2024-01-09T04:00:34.146Z,103676.25
2024-01-09T04:03:01.826Z,103674.63
2024-01-09T04:05:29.497Z,103675.41
2024-01-09T04:07:57.123Z,103670.31
2024-01-09T04:10:24.768Z,103678.88
2024-01-09T04:12:52.564Z,103678.03
2024-01-09T04:15:21.693Z,103672.09
2024-01-09T04:17:49.388Z,103667.84
2024-01-09T04:20:17.199Z,103671.19
2024-01-09T04:22:44.870Z,103677.16
2024-01-09T04:25:14.157Z,103684.84
2024-01-09T04:27:41.822Z,103672.88
2024-01-09T04:30:09.904Z,103691.59
2024-01-09T04:32:39.116Z,103695.88
2024-01-09T04:35:06.897Z,103689.94
2024-01-09T04:37:34.580Z,103694.22
2024-01-09T04:40:02.278Z,103703.56
2024-01-09T04:42:29.933Z,103697.63
2024-01-09T04:44:58.158Z,103697.69
2024-01-09T04:47:25.765Z,103682.31
2024-01-09T04:49:54.919Z,103683.25
2024-01-09T04:52:22.542Z,103687.50
2024-01-09T04:54:50.134Z,103691.75
2024-01-09T04:57:18.825Z,103696.88
2024-01-09T04:59:46.545Z,103693.47
2024-01-09T05:02:14.352Z,103696.00
2024-01-09T05:04:42.010Z,103704.56
2024-01-09T05:07:10.981Z,103697.72
2024-01-09T05:09:40.300Z,103696.00
2024-01-09T05:12:08.439Z,103714.75
2024-01-09T05:14:36.076Z,103717.28
2024-01-09T05:17:03.833Z,103723.25
2024-01-09T05:19:31.587Z,103730.03
2024-01-09T05:21:59.259Z,103728.34
2024-01-09T05:24:28.152Z,103733.44
2024-01-09T05:26:55.841Z,103741.13
2024-01-09T05:29:23.518Z,103741.94
2024-01-09T05:31:51.195Z,103745.34
2024-01-09T05:34:18.822Z,103746.25
2024-01-09T05:36:46.428Z,103746.22
2024-01-09T05:39:14.126Z,103755.59
2024-01-09T05:41:43.125Z,103753.03
2024-01-09T05:44:10.776Z,103753.00
2024-01-09T05:46:38.404Z,103759.84
2024-01-09T05:49:06.162Z,103761.53
2024-01-09T05:51:34.348Z,103762.41
2024-01-09T05:54:02.090Z,103754.75
2024-01-09T05:56:29.799Z,103759.84
2024-01-09T05:58:58.840Z,103765.84
2024-01-09T06:01:26.500Z,103764.09
2024-01-09T06:03:54.160Z,103762.44
2024-01-09T06:06:21.811Z,103769.25
2024-01-09T06:08:50.062Z,103768.38
2024-01-09T06:11:18.154Z,103770.09
2024-01-09T06:13:45.806Z,103787.94
2024-01-09T06:16:14.804Z,103790.47
2024-01-09T06:18:42.593Z,103796.41
2024-01-09T06:21:10.274Z,103805.75
2024-01-09T06:23:37.899Z,103810.84
2024-01-09T06:26:05.705Z,103821.06
2024-01-09T06:28:34.643Z,103815.09
2024-01-09T06:31:02.789Z,103820.22
2024-01-09T06:33:31.887Z,103826.16
2024-01-09T06:35:59.567Z,103821.91
2024-01-09T06:38:27.196Z,103825.31
2024-01-09T06:40:54.826Z,103830.41
2024-01-09T06:43:22.357Z,103833.84
2024-01-09T06:45:49.926Z,103842.31
2024-01-09T06:48:17.693Z,103836.34
2024-01-09T06:50:46.884Z,103834.66
2024-01-09T06:53:14.602Z,103839.75
2024-01-09T06:55:42.582Z,103849.97
2024-01-09T06:58:12.917Z,103851.66
2024-01-09T07:00:40.633Z,103851.66
2024-01-09T07:03:08.446Z,103848.25
2024-01-09T07:05:36.205Z,103853.38
2024-01-09T07:08:05.580Z,103858.47
2024-01-09T07:10:33.424Z,103863.53
2024-01-09T07:13:01.073Z,103869.47
2024-01-09T07:15:28.041Z,103877.13
2024-01-09T07:17:55.990Z,103877.97
2024-01-09T07:20:23.784Z,103883.91
2024-01-09T07:22:58.914Z,103892.41
2024-01-09T07:25:34.460Z,103901.75
2024-01-09T07:28:02.084Z,103888.16
2024-01-09T07:30:29.773Z,103890.69
2024-01-09T07:32:57.552Z,103904.28
2024-01-09T07:35:25.313Z,103908.53
2024-01-09T07:37:52.984Z,103916.19
2024-01-09T07:40:20.775Z,103916.19
2024-01-09T07:42:57.261Z,103919.56
2024-01-09T07:45:30.543Z,103929.75
2024-01-09T07:47:58.716Z,103939.09
2024-01-09T07:50:26.484Z,103943.34
2024-01-09T07:52:54.098Z,103948.44
2024-01-09T07:55:21.766Z,103954.34
2024-01-09T07:57:50.793Z,103957.78
2024-01-09T08:00:18.754Z,103973.03
2024-01-09T08:02:46.429Z,103978.13
2024-01-09T08:05:14.162Z,103979.00
2024-01-09T08:07:41.876Z,103981.53
2024-01-09T08:10:10.125Z,103991.72
2024-01-09T08:12:37.753Z,104001.03
2024-01-09T08:15:07.290Z,103999.38
2024-01-09T08:17:34.972Z,104002.75
2024-01-09T08:20:04.622Z,104012.94
2024-01-09T08:22:32.312Z,104024.81
2024-01-09T08:25:00.317Z,104024.84
2024-01-09T08:27:28.038Z,104024.84
2024-01-09T08:29:55.821Z,104024.00
2024-01-09T08:32:25.038Z,104031.63
2024-01-09T08:34:52.879Z,104030.78
2024-01-09T08:37:20.614Z,104037.56
2024-01-09T08:39:48.254Z,104035.88
2024-01-09T08:42:16.021Z,104040.13
2024-01-09T08:44:43.754Z,104038.41
2024-01-09T08:47:11.486Z,104039.28
2024-01-09T08:49:40.545Z,104035.03
2024-01-09T08:52:08.213Z,104035.03
2024-01-09T08:54:35.824Z,104036.72
2024-01-09T08:57:03.473Z,104042.69
2024-01-09T08:59:31.163Z,104046.06
2024-01-09T09:01:58.821Z,104050.31
2024-01-09T09:04:26.496Z,104067.31
2024-01-09T09:06:55.685Z,104066.47
2024-01-09T09:09:23.315Z,104057.13
2024-01-09T09:11:50.943Z,104056.25
2024-01-09T09:14:18.630Z,104063.91
2024-01-09T09:16:46.323Z,104063.06
2024-01-09T09:19:14.038Z,104074.13
2024-01-09T09:21:41.715Z,104074.13
2024-01-09T09:24:10.896Z,104075.78
2024-01-09T09:26:38.636Z,104075.81
2024-01-09T09:29:14.583Z,104075.78
2024-01-09T09:31:47.186Z,104064.75
2024-01-09T09:34:14.945Z,104075.81
2024-01-09T09:36:42.630Z,104069.00
2024-01-09T09:39:12.214Z,104077.50
2024-01-09T09:41:40.867Z,104076.66
2024-01-09T09:44:09.975Z,104080.03
2024-01-09T09:46:38.383Z,104068.13
2024-01-09T09:49:06.789Z,104063.88
2024-01-09T09:51:34.674Z,104076.63
2024-01-09T09:54:03.686Z,104074.06
2024-01-09T09:56:33.320Z,104071.56
2024-01-09T09:59:00.884Z,104068.13
2024-01-09T10:01:28.625Z,104074.09
2024-01-09T10:03:57.657Z,104074.09
2024-01-09T10:06:25.877Z,104067.25
2024-01-09T10:08:56.014Z,104074.03
2024-01-09T10:11:24.595Z,104070.63
2024-01-09T10:13:54.106Z,104071.47
2024-01-09T10:16:21.635Z,104063.81
2024-01-09T10:18:49.411Z,104055.31
2024-01-09T10:21:19.014Z,104061.22
2024-01-09T10:23:46.964Z,104060.38
2024-01-09T10:26:14.620Z,104050.97
2024-01-09T10:28:42.419Z,104049.28
2024-01-09T10:31:11.595Z,104045.88
2024-01-09T10:33:40.332Z,104039.91
2024-01-09T10:36:08.293Z,104030.50
2024-01-09T10:38:36.093Z,104022.84
2024-01-09T10:41:15.475Z,104023.69
2024-01-09T10:43:43.409Z,104016.03
2024-01-09T10:46:12.405Z,104019.38
2024-01-09T10:48:41.291Z,104019.13
2024-01-09T10:51:09.246Z,104021.75
2024-01-09T10:53:38.753Z,104017.78
2024-01-09T10:56:08.902Z,104002.03
2024-01-09T10:58:37.191Z,103965.41
2024-01-09T11:01:05.017Z,103948.72
2024-01-09T11:03:34.183Z,103925.31
2024-01-09T11:06:04.766Z,103870.75
2024-01-09T11:08:35.078Z,103900.44
2024-01-09T11:11:04.158Z,103910.75
2024-01-09T11:13:32.741Z,103909.19
2024-01-09T11:16:01.238Z,103907.72
2024-01-09T11:18:32.604Z,103902.66
2024-01-09T11:21:03.192Z,103903.53
2024-01-09T11:23:54.007Z,103903.53
2024-01-09T11:26:21.950Z,103906.13
2024-01-09T11:28:49.542Z,103910.31
2024-01-09T11:31:18.352Z,103901.78
2024-01-09T11:33:46.403Z,103904.41
2024-01-09T11:36:19.815Z,103902.63
2024-01-09T11:38:47.477Z,103900.78
2024-01-09T11:41:15.626Z,103889.69
2024-01-09T11:43:58.963Z,103891.28
2024-01-09T11:46:27.800Z,103894.72
2024-01-09T11:48:55.570Z,103878.47
2024-01-09T11:51:24.921Z,103870.91
2024-01-09T11:53:52.733Z,103869.09
2024-01-09T11:56:20.816Z,103858.88
2024-01-09T11:58:51.205Z,103856.34
2024-01-09T12:01:20.861Z,103849.59
2024-01-09T12:03:52.830Z,103847.81
2024-01-09T12:06:20.743Z,103848.53
2024-01-09T12:08:49.824Z,103845.06
2024-01-09T12:11:18.045Z,103833.88
2024-01-09T12:13:45.907Z,103823.56
2024-01-09T12:16:19.956Z,103831.22
2024-01-09T12:18:48.576Z,103823.47
2024-01-09T12:21:16.720Z,103815.88
2024-01-09T12:24:02.006Z,103807.44
2024-01-09T12:26:34.777Z,103802.19
2024-01-09T12:29:03.388Z,103783.38
2024-01-09T12:31:30.954Z,103785.06
2024-01-09T12:33:59.162Z,103772.19
2024-01-09T12:36:29.000Z,103772.13
2024-01-09T12:38:57.894Z,103767.91
2024-01-09T12:41:25.948Z,103752.44
2024-01-09T12:43:55.085Z,103757.47
2024-01-09T12:46:23.091Z,103748.94
2024-01-09T12:48:51.871Z,103742.03
2024-01-09T12:51:20.561Z,103731.00
2024-01-09T12:53:48.765Z,103725.78
2024-01-09T12:56:17.052Z,103724.06
2024-01-09T12:58:46.503Z,103711.19
2024-01-09T13:01:15.746Z,103711.97
2024-01-09T13:03:44.758Z,103717.03
2024-01-09T13:06:13.090Z,103706.00
2024-01-09T13:08:41.667Z,103710.09
2024-01-09T13:11:10.867Z,103714.47
2024-01-09T13:13:39.449Z,103706.63
2024-01-09T13:16:07.965Z,103715.19
2024-01-09T13:18:37.256Z,103699.75
2024-01-09T13:21:05.358Z,103714.31
2024-01-09T13:26:03.984Z,103702.22
2024-01-09T13:28:31.816Z,103708.06
2024-01-09T13:30:59.934Z,103695.31
2024-01-09T13:33:28.659Z,103697.97
2024-01-09T13:35:57.838Z,103692.72
2024-01-09T13:38:25.811Z,103695.28
2024-01-09T13:40:53.461Z,103691.72
2024-01-09T13:43:21.189Z,103695.09
2024-01-09T13:45:51.528Z,103692.53
2024-01-09T13:48:19.582Z,103697.56
2024-01-09T13:51:49.231Z,103695.84
2024-01-09T13:53:37.868Z,103690.03
2024-01-09T13:56:06.543Z,103693.34
2024-01-09T13:58:36.170Z,103695.84
2024-01-09T14:01:04.038Z,103699.31
2024-01-09T14:03:31.755Z,103686.50
2024-01-09T14:05:59.837Z,103691.63
2024-01-09T14:08:27.676Z,103691.50
2024-01-09T14:10:56.823Z,103676.16
2024-01-09T14:13:24.430Z,103673.53
2024-01-09T14:15:53.264Z,103676.81
2024-01-09T14:18:21.565Z,103675.38
2024-01-09T14:20:49.230Z,103677.06
2024-01-09T14:23:16.908Z,103679.59
2024-01-09T14:25:44.673Z,103676.22
2024-01-09T14:28:13.633Z,103667.84
2024-01-09T14:30:41.221Z,103664.28
2024-01-09T14:33:08.903Z,103665.09
2024-01-09T14:35:38.344Z,103655.78
2024-01-09T14:38:06.279Z,103661.06
2024-01-09T14:40:33.944Z,103664.53
2024-01-09T14:43:02.797Z,103665.31
2024-01-09T14:45:31.766Z,103667.00
2024-01-09T14:47:59.600Z,103670.31
2024-01-09T14:50:28.204Z,103661.84
2024-01-09T14:52:55.977Z,103665.44
2024-01-09T14:55:25.086Z,103674.81
2024-01-09T14:57:53.418Z,103681.66
2024-01-09T15:00:21.350Z,103686.78
2024-01-09T15:02:52.588Z,103681.75
2024-01-09T15:05:21.320Z,103682.72
2024-01-09T15:07:49.069Z,103693.00
2024-01-09T15:10:16.768Z,103688.72
2024-01-09T15:12:44.362Z,103687.81
2024-01-09T15:15:12.715Z,103674.16
2024-01-09T15:17:41.542Z,103685.38
2024-01-09T15:20:12.572Z,103680.34
2024-01-09T15:22:40.254Z,103673.50
2024-01-09T15:25:10.069Z,103656.44
2024-01-09T15:27:37.653Z,103670.28
2024-01-09T15:30:05.690Z,103673.75
2024-01-09T15:32:34.757Z,103665.16
2024-01-09T15:35:04.842Z,103667.75
2024-01-09T15:37:34.975Z,103676.50
2024-01-09T15:40:02.644Z,103678.22
2024-01-09T15:42:30.249Z,103685.91
2024-01-09T15:44:57.828Z,103686.88
2024-01-09T15:47:25.399Z,103686.94
2024-01-09T15:49:54.614Z,103695.47
2024-01-09T15:52:22.259Z,103685.25
2024-01-09T15:54:51.646Z,103689.56
2024-01-09T15:57:19.462Z,103693.88
2024-01-09T15:59:47.037Z,103695.72
2024-01-09T16:02:15.139Z,103700.72
2024-01-09T16:04:43.610Z,103703.38
2024-01-09T16:07:12.690Z,103688.84
2024-01-09T16:09:40.288Z,103695.72
2024-01-09T16:12:09.347Z,103698.31
2024-01-09T16:14:38.041Z,103691.63
2024-01-09T16:17:05.970Z,103700.97
2024-01-09T16:19:34.097Z,103687.38
2024-01-09T16:22:01.723Z,103680.66
2024-01-09T16:24:28.323Z,103684.06
2024-01-09T16:26:56.348Z,103696.81
2024-01-09T16:29:25.718Z,103692.56
2024-01-09T16:31:53.470Z,103701.94
2024-01-09T16:34:21.253Z,103700.38
2024-01-09T16:36:48.939Z,103716.66
2024-01-09T16:39:16.642Z,103721.91
2024-01-09T16:41:44.654Z,103736.34
2024-01-09T16:44:12.548Z,103736.38
2024-01-09T16:46:42.645Z,103738.16
2024-01-09T16:49:10.812Z,103748.31
2024-01-09T16:51:39.012Z,103749.28
2024-01-09T16:54:06.754Z,103742.44
2024-01-09T16:56:35.217Z,103740.72
2024-01-09T16:59:02.935Z,103746.78
2024-01-09T17:01:31.047Z,103749.19
2024-01-09T17:04:00.157Z,103750.19
2024-01-09T17:06:27.694Z,103750.94
2024-01-09T17:08:55.317Z,103745.97
2024-01-09T17:11:24.244Z,103751.06
2024-01-09T17:13:52.553Z,103753.59
2024-01-09T17:16:21.408Z,103762.13
2024-01-09T17:18:49.051Z,103761.28
2024-01-09T17:21:18.045Z,103751.81
2024-01-09T17:23:46.480Z,103735.59
2024-01-09T17:26:17.829Z,103739.03
2024-01-09T17:28:45.549Z,103733.06
2024-01-09T17:31:13.191Z,103735.78
2024-01-09T17:33:41.630Z,103734.94
2024-01-09T17:36:09.580Z,103726.34
2024-01-09T17:38:38.474Z,103730.63
2024-01-09T17:41:07.316Z,103732.34
2024-01-09T17:43:35.175Z,103729.81
2024-01-09T17:46:05.698Z,103712.13
2024-01-09T17:48:35.499Z,103742.56
2024-01-09T17:51:03.746Z,103739.19
2024-01-09T17:53:31.362Z,103731.50
2024-01-09T17:56:02.606Z,103719.59
2024-01-09T17:58:30.311Z,103721.28
2024-01-09T18:00:58.534Z,103723.09
2024-01-09T18:03:27.470Z,103717.91
2024-01-09T18:05:56.392Z,103723.03
2024-01-09T18:08:24.609Z,103723.97
2024-01-09T18:10:52.278Z,103711.22
2024-01-09T18:13:21.310Z,103703.53
2024-01-09T18:15:48.895Z,103707.91
2024-01-09T18:18:18.181Z,103711.31
2024-01-09T18:20:47.319Z,103712.19
2024-01-09T18:23:15.113Z,103703.66
2024-01-09T18:25:42.970Z,103702.75
2024-01-09T18:28:11.071Z,103690.03
2024-01-09T18:30:42.055Z,103697.69
2024-01-09T18:33:10.329Z,103701.94
2024-01-09T18:35:38.166Z,103703.56
2024-01-09T18:38:05.918Z,103693.31
2024-01-09T18:40:33.530Z,103698.47
2024-01-09T18:43:01.144Z,103701.16
2024-01-09T18:45:28.773Z,103708.78
2024-01-09T18:47:57.715Z,103700.25
2024-01-09T18:50:25.800Z,103696.03
2024-01-09T18:52:54.438Z,103701.28
2024-01-09T18:55:22.189Z,103695.38
2024-01-09T18:57:49.759Z,103695.31
2024-01-09T19:00:17.679Z,103691.91
2024-01-09T19:02:45.377Z,103690.13
2024-01-09T19:05:14.496Z,103679.97
2024-01-09T19:07:43.411Z,103684.22
2024-01-09T19:10:12.720Z,103679.13
2024-01-09T19:12:40.682Z,103668.84
2024-01-09T19:15:08.747Z,103671.53
2024-01-09T19:17:36.521Z,103677.44
2024-01-09T19:20:04.439Z,103696.25
2024-01-09T19:22:34.594Z,103683.41
2024-01-09T19:25:04.715Z,103676.69
2024-01-09T19:27:34.103Z,103672.38
2024-01-09T19:30:02.001Z,103666.38
2024-01-09T19:32:30.115Z,103659.59
2024-01-09T19:34:57.815Z,103656.22
2024-01-09T19:37:25.378Z,103661.25
2024-01-09T19:39:54.718Z,103663.06
2024-01-09T19:42:24.033Z,103661.31
2024-01-09T19:44:54.836Z,103668.09
2024-01-09T19:47:22.814Z,103665.56
2024-01-09T19:49:50.559Z,103670.81
2024-01-09T19:52:18.241Z,103663.13
2024-01-09T19:54:45.801Z,103656.31
2024-01-09T19:57:14.872Z,103662.25
2024-01-09T19:59:43.690Z,103668.16
2024-01-09T20:02:11.645Z,103666.53
2024-01-09T20:04:41.017Z,103669.94
2024-01-09T20:07:08.724Z,103668.25
2024-01-09T20:09:36.389Z,103669.97
2024-01-09T20:12:05.148Z,103668.28
2024-01-09T20:14:34.166Z,103666.59
2024-01-09T20:17:01.960Z,103671.81
2024-01-09T20:19:30.198Z,103656.50
2024-01-09T20:21:57.789Z,103659.78
2024-01-09T20:24:25.397Z,103662.38
2024-01-09T20:26:53.500Z,103658.22
2024-01-09T20:29:21.146Z,103653.91
2024-01-09T20:31:50.093Z,103660.81
2024-01-09T20:34:17.753Z,103664.28
2024-01-09T20:36:45.473Z,103660.81
2024-01-09T20:39:17.562Z,103646.31
2024-01-09T20:41:45.470Z,103657.38
2024-01-09T20:44:16.996Z,103655.78
2024-01-09T20:46:45.477Z,103642.16
2024-01-09T20:49:14.665Z,103648.91
2024-01-09T20:51:43.962Z,103644.66
2024-01-09T20:54:11.941Z,103641.22
2024-01-09T20:56:40.855Z,103640.44
2024-01-09T20:59:08.743Z,103648.03
2024-01-09T21:01:39.000Z,103647.25
2024-01-09T21:04:11.803Z,103643.03
2024-01-09T21:06:45.861Z,103348.31
2024-01-09T21:09:13.708Z,103339.81
2024-01-09T21:11:41.346Z,103330.50
2024-01-09T21:14:09.236Z,103333.06
2024-01-09T21:16:37.040Z,103322.03
2024-01-09T21:19:04.791Z,103325.41
2024-01-09T21:21:33.910Z,103323.00
2024-01-09T21:24:03.526Z,103321.97
2024-01-09T21:26:31.188Z,103319.44
2024-01-09T21:28:58.908Z,103312.59
2024-01-09T21:31:26.616Z,103312.63
2024-01-09T21:33:54.468Z,103314.34
2024-01-09T21:36:22.131Z,103310.91
2024-01-09T21:38:49.694Z,103309.38
2024-01-09T21:41:18.776Z,103307.69
2024-01-09T21:43:46.468Z,103314.50
2024-01-09T21:46:14.502Z,103309.44
2024-01-09T21:48:42.235Z,103307.66
2024-01-09T21:51:10.000Z,103311.13
2024-01-09T21:53:37.598Z,103308.69
2024-01-09T21:56:05.445Z,103305.16
2024-01-09T21:58:34.916Z,103305.94
2024-01-09T22:01:02.585Z,103305.09
2024-01-09T22:03:30.186Z,103295.75
2024-01-09T22:05:58.375Z,103301.75
2024-01-09T22:08:26.035Z,103300.09
2024-01-09T22:10:53.709Z,103305.97
2024-01-09T22:13:21.321Z,103305.13
2024-01-09T22:15:52.462Z,103297.44
2024-01-09T22:18:21.205Z,103300.09
2024-01-09T22:20:48.822Z,103308.59
2024-01-09T22:23:16.473Z,103309.63
2024-01-09T22:25:44.283Z,103315.59
2024-01-09T22:28:12.967Z,103309.56
2024-01-09T22:30:41.715Z,103313.94
2024-01-09T22:33:11.982Z,103314.75
2024-01-09T22:35:41.939Z,103317.28
2024-01-09T22:38:09.740Z,103324.09
2024-01-09T22:40:37.492Z,103325.06
2024-01-09T22:43:05.281Z,103322.41
2024-01-09T22:45:32.984Z,103327.59
2024-01-09T22:48:00.693Z,103331.91
2024-01-09T22:50:29.792Z,103330.16
2024-01-09T22:52:58.323Z,103335.31
2024-01-09T22:55:25.947Z,103339.53
2024-01-09T22:57:54.929Z,103342.06
2024-01-09T23:00:23.645Z,103344.72
2024-01-09T23:02:52.858Z,103349.78
2024-01-09T23:05:20.755Z,103347.25
2024-01-09T23:07:49.952Z,103352.28
2024-01-09T23:10:17.733Z,103348.03
2024-01-09T23:12:46.361Z,103354.13
2024-01-09T23:15:13.993Z,103343.88
2024-01-09T23:17:41.998Z,103341.31
2024-01-09T23:20:10.842Z,103332.78
2024-01-09T23:22:39.193Z,103334.53
2024-01-09T23:25:10.530Z,103336.25
2024-01-09T23:27:38.196Z,103327.72
2024-01-09T23:30:06.701Z,103322.59
2024-01-09T23:32:34.486Z,103322.59
2024-01-09T23:35:02.922Z,103315.81
2024-01-09T23:37:32.259Z,103320.84
2024-01-09T23:40:00.243Z,103315.91
2024-01-09T23:42:29.323Z,103322.81
2024-01-09T23:44:57.522Z,103327.88
2024-01-09T23:47:25.205Z,103329.53
2024-01-09T23:49:53.045Z,103333.78
2024-01-09T23:52:20.732Z,103331.16
2024-01-09T23:54:48.916Z,103327.84
2024-01-09T23:57:16.523Z,103327.91
2024-01-09T23:59:45.470Z,103326.34
